createdAt,value
2016-12-01T00:00:34.022Z,0
2016-12-01T00:01:42.711Z,0
2016-12-01T00:02:51.394Z,0
2016-12-01T00:04:00.380Z,0
2016-12-01T00:05:09.366Z,0
2016-12-01T00:06:18.460Z,0
2016-12-01T00:07:27.443Z,0
2016-12-01T00:08:36.763Z,0
2016-12-01T00:09:45.769Z,0
2016-12-01T00:10:54.776Z,0
2016-12-01T00:12:04.070Z,0
2016-12-01T00:13:13.681Z,0
2016-12-01T00:14:22.684Z,0
2016-12-01T00:15:31.674Z,0
2016-12-01T00:16:40.700Z,0
2016-12-01T00:17:49.391Z,0
2016-12-01T00:18:58.405Z,0
2016-12-01T00:20:07.086Z,0
2016-12-01T00:21:16.394Z,0
2016-12-01T00:22:25.083Z,0
2016-12-01T00:23:34.376Z,0
2016-12-01T00:24:43.122Z,0
2016-12-01T00:25:52.125Z,0
2016-12-01T00:27:01.429Z,0
2016-12-01T00:28:11.047Z,0
2016-12-01T00:29:20.182Z,0
2016-12-01T00:30:29.469Z,0
2016-12-01T00:31:38.786Z,0
2016-12-01T00:32:47.767Z,0
2016-12-01T00:33:56.453Z,0
2016-12-01T00:35:05.475Z,0
2016-12-01T00:36:14.174Z,0
2016-12-01T00:37:23.459Z,0
2016-12-01T00:38:32.473Z,0
2016-12-01T00:39:41.144Z,0
2016-12-01T00:40:50.149Z,0
2016-12-01T00:41:59.146Z,0
2016-12-01T00:43:08.749Z,0
2016-12-01T00:44:18.056Z,0
2016-12-01T00:45:27.358Z,0
2016-12-01T00:46:36.354Z,0
2016-12-01T00:47:45.333Z,0
2016-12-01T00:48:54.631Z,0
2016-12-01T00:50:03.926Z,0
2016-12-01T00:51:12.631Z,0
2016-12-01T00:52:21.796Z,0
2016-12-01T00:53:30.787Z,0
2016-12-01T00:54:39.800Z,0
2016-12-01T00:55:49.105Z,0
2016-12-01T00:56:58.083Z,0
2016-12-01T00:58:07.089Z,0
2016-12-01T00:59:15.770Z,0
2016-12-01T01:00:25.068Z,0
2016-12-01T01:01:34.676Z,0
2016-12-01T01:02:43.352Z,0
2016-12-01T01:03:52.362Z,0
2016-12-01T01:05:01.670Z,0
2016-12-01T01:06:10.358Z,0
2016-12-01T01:07:19.356Z,0
2016-12-01T01:08:28.045Z,0
2016-12-01T01:09:37.346Z,0
2016-12-01T01:10:46.025Z,0
2016-12-01T01:11:55.058Z,0
2016-12-01T01:13:04.057Z,0
2016-12-01T01:14:13.067Z,0
2016-12-01T01:15:23.265Z,0
2016-12-01T01:16:32.265Z,0
2016-12-01T01:17:41.563Z,0
2016-12-01T01:18:50.562Z,0
2016-12-01T01:20:00.235Z,0
2016-12-01T01:21:10.133Z,0
2016-12-01T01:22:19.439Z,0
2016-12-01T01:23:28.742Z,0
2016-12-01T01:24:37.746Z,0
2016-12-01T01:25:47.046Z,0
2016-12-01T01:26:56.188Z,0
2016-12-01T01:28:04.898Z,0
2016-12-01T01:29:14.207Z,0
2016-12-01T01:30:22.912Z,0
2016-12-01T01:31:32.233Z,0
2016-12-01T01:32:41.528Z,0
2016-12-01T01:33:50.821Z,0
2016-12-01T01:35:00.438Z,0
2016-12-01T01:36:09.749Z,0
2016-12-01T01:37:18.747Z,0
2016-12-01T01:38:27.779Z,0
2016-12-01T01:39:37.086Z,0
2016-12-01T01:40:46.386Z,0
2016-12-01T01:41:55.379Z,0
2016-12-01T01:43:04.372Z,0
2016-12-01T01:44:13.405Z,0
2016-12-01T01:45:22.391Z,0
2016-12-01T01:46:31.373Z,0
2016-12-01T01:47:40.971Z,0
2016-12-01T01:48:49.665Z,0
2016-12-01T01:49:58.657Z,0
2016-12-01T01:51:07.957Z,0
2016-12-01T01:52:16.953Z,0
2016-12-01T01:53:26.258Z,0
2016-12-01T01:54:34.942Z,0
2016-12-01T01:55:43.926Z,0
2016-12-01T01:56:52.612Z,0
2016-12-01T01:58:01.293Z,0
2016-12-01T01:59:09.985Z,0
2016-12-01T02:00:18.979Z,0
2016-12-01T02:01:28.601Z,0
2016-12-01T02:02:37.659Z,0
2016-12-01T02:03:46.336Z,0
2016-12-01T02:04:55.320Z,0
2016-12-01T02:06:05.236Z,0
2016-12-01T02:07:13.928Z,0
2016-12-01T02:08:22.926Z,0
2016-12-01T02:09:32.242Z,0
2016-12-01T02:10:41.222Z,0
2016-12-01T02:11:49.907Z,0
2016-12-01T02:12:59.207Z,0
2016-12-01T02:14:07.943Z,0
2016-12-01T02:15:16.939Z,0
2016-12-01T02:16:25.628Z,0
2016-12-01T02:17:34.616Z,0
2016-12-01T02:18:43.759Z,0
2016-12-01T02:19:52.753Z,0
2016-12-01T02:21:02.080Z,0
2016-12-01T02:22:11.084Z,0
2016-12-01T02:23:20.738Z,0
2016-12-01T02:24:29.713Z,0
2016-12-01T02:25:38.397Z,0
2016-12-01T02:26:47.492Z,0
2016-12-01T02:27:56.481Z,0
2016-12-01T02:29:05.466Z,0
2016-12-01T02:30:15.061Z,0
2016-12-01T02:31:24.046Z,0
2016-12-01T02:32:33.043Z,0
2016-12-01T02:33:42.650Z,0
2016-12-01T02:34:51.952Z,0
2016-12-01T02:36:01.268Z,0
2016-12-01T02:37:10.573Z,0
2016-12-01T02:38:20.183Z,0
2016-12-01T02:39:29.208Z,0
2016-12-01T02:40:38.501Z,0
2016-12-01T02:41:47.493Z,0
2016-12-01T02:42:56.216Z,0
2016-12-01T02:44:05.508Z,0
2016-12-01T02:45:15.110Z,0
2016-12-01T02:46:24.133Z,0
2016-12-01T02:47:33.431Z,0
2016-12-01T02:48:42.139Z,0
2016-12-01T02:49:51.162Z,0
2016-12-01T02:51:00.198Z,0
2016-12-01T02:52:08.897Z,0
2016-12-01T02:53:18.347Z,0
2016-12-01T02:54:27.334Z,0
2016-12-01T02:55:36.320Z,0
2016-12-01T02:56:45.624Z,0
2016-12-01T02:57:54.612Z,0
2016-12-01T02:59:03.608Z,0
2016-12-01T03:00:12.607Z,0
2016-12-01T03:01:21.302Z,0
2016-12-01T03:02:30.607Z,0
2016-12-01T03:03:39.600Z,0
2016-12-01T03:04:49.201Z,0
2016-12-01T03:05:58.496Z,0
2016-12-01T03:07:08.109Z,0
2016-12-01T03:08:17.096Z,0
2016-12-01T03:09:26.092Z,0
2016-12-01T03:10:35.535Z,0
2016-12-01T03:11:45.136Z,0
2016-12-01T03:12:53.864Z,0
2016-12-01T03:14:02.861Z,0
2016-12-01T03:15:11.854Z,0
2016-12-01T03:16:20.541Z,0
2016-12-01T03:17:29.227Z,0
2016-12-01T03:18:37.915Z,0
2016-12-01T03:19:47.210Z,0
2016-12-01T03:20:56.208Z,0
2016-12-01T03:22:05.303Z,0
2016-12-01T03:23:15.210Z,0
2016-12-01T03:24:24.509Z,0
2016-12-01T03:25:33.824Z,0
2016-12-01T03:26:42.523Z,0
2016-12-01T03:27:51.515Z,0
2016-12-01T03:29:00.502Z,0
2016-12-01T03:30:09.191Z,0
2016-12-01T03:31:18.484Z,0
2016-12-01T03:32:27.795Z,0
2016-12-01T03:33:36.939Z,0
2016-12-01T03:34:46.234Z,0
2016-12-01T03:35:55.227Z,0
2016-12-01T03:37:04.522Z,0
2016-12-01T03:38:14.111Z,0
2016-12-01T03:39:23.746Z,0
2016-12-01T03:40:33.042Z,0
2016-12-01T03:41:41.726Z,0
2016-12-01T03:42:50.417Z,0
2016-12-01T03:43:59.406Z,0
2016-12-01T03:45:08.384Z,0
2016-12-01T03:46:17.363Z,0
2016-12-01T03:47:26.357Z,0
2016-12-01T03:48:35.037Z,0
2016-12-01T03:49:44.334Z,0
2016-12-01T03:50:53.014Z,0
2016-12-01T03:52:01.694Z,0
2016-12-01T03:53:10.384Z,0
2016-12-01T03:54:19.365Z,0
2016-12-01T03:55:28.646Z,0
2016-12-01T03:56:37.628Z,0
2016-12-01T03:57:47.238Z,0
2016-12-01T03:58:55.911Z,0
2016-12-01T04:00:04.603Z,0
2016-12-01T04:01:13.926Z,0
2016-12-01T04:02:23.364Z,0
2016-12-01T04:03:32.670Z,0
2016-12-01T04:04:41.663Z,0
2016-12-01T04:05:51.551Z,0
2016-12-01T04:07:00.730Z,0
2016-12-01T04:08:09.919Z,0
2016-12-01T04:09:19.051Z,0
2016-12-01T04:10:28.113Z,0
2016-12-01T04:11:36.960Z,0
2016-12-01T04:12:46.493Z,0
2016-12-01T04:13:55.541Z,0
2016-12-01T04:15:04.659Z,0
2016-12-01T04:16:15.690Z,0
2016-12-01T04:17:25.581Z,0
2016-12-01T04:18:34.893Z,0
2016-12-01T04:19:44.174Z,0
2016-12-01T04:20:53.470Z,0
2016-12-01T04:22:02.762Z,0
2016-12-01T04:23:11.441Z,0
2016-12-01T04:24:20.434Z,0
2016-12-01T04:25:29.427Z,0
2016-12-01T04:26:38.109Z,0
2016-12-01T04:27:47.404Z,0
2016-12-01T04:28:56.413Z,0
2016-12-01T04:30:05.407Z,0
2016-12-01T04:31:14.086Z,0
2016-12-01T04:32:22.762Z,0
2016-12-01T04:33:31.744Z,0
2016-12-01T04:34:40.474Z,0
2016-12-01T04:35:49.154Z,0
2016-12-01T04:36:58.136Z,0
2016-12-01T04:38:07.136Z,0
2016-12-01T04:39:16.430Z,0
2016-12-01T04:40:25.120Z,0
2016-12-01T04:41:34.130Z,0
2016-12-01T04:42:43.106Z,0
2016-12-01T04:43:52.417Z,0
2016-12-01T04:45:01.115Z,0
2016-12-01T04:46:10.099Z,0
2016-12-01T04:47:19.087Z,0
2016-12-01T04:48:28.787Z,0
2016-12-01T04:49:38.402Z,0
2016-12-01T04:50:47.404Z,0
2016-12-01T04:51:56.454Z,0
2016-12-01T04:53:05.133Z,0
2016-12-01T04:54:14.122Z,0
2016-12-01T04:55:23.167Z,0
2016-12-01T04:56:32.458Z,0
2016-12-01T04:57:42.055Z,0
2016-12-01T04:58:51.046Z,0
2016-12-01T05:00:00.178Z,0
2016-12-01T05:01:08.873Z,0
2016-12-01T05:02:18.195Z,0
2016-12-01T05:03:26.866Z,0
2016-12-01T05:04:35.854Z,0
2016-12-01T05:05:44.534Z,0
2016-12-01T05:06:53.526Z,0
2016-12-01T05:08:02.838Z,0
2016-12-01T05:09:11.825Z,0
2016-12-01T05:10:20.515Z,0
2016-12-01T05:11:29.809Z,0
2016-12-01T05:12:38.799Z,0
2016-12-01T05:13:48.106Z,0
2016-12-01T05:14:56.791Z,0
2016-12-01T05:16:06.087Z,0
2016-12-01T05:17:15.369Z,0
2016-12-01T05:18:24.673Z,0
2016-12-01T05:19:33.359Z,0
2016-12-01T05:20:42.054Z,0
2016-12-01T05:21:51.043Z,0
2016-12-01T05:23:00.192Z,0
2016-12-01T05:24:08.874Z,0
2016-12-01T05:25:17.864Z,0
2016-12-01T05:26:27.158Z,0
2016-12-01T05:27:36.443Z,0
2016-12-01T05:28:46.442Z,0
2016-12-01T05:29:55.144Z,0
2016-12-01T05:31:03.829Z,0
2016-12-01T05:32:13.424Z,0
2016-12-01T05:33:22.414Z,0
2016-12-01T05:34:31.809Z,0
2016-12-01T05:35:40.486Z,0
2016-12-01T05:36:49.786Z,0
2016-12-01T05:37:58.768Z,0
2016-12-01T05:39:08.367Z,0
2016-12-01T05:40:17.958Z,0
2016-12-01T05:41:26.633Z,0
2016-12-01T05:42:35.916Z,0
2016-12-01T05:43:44.652Z,0
2016-12-01T05:44:53.628Z,0
2016-12-01T05:46:03.894Z,0
2016-12-01T05:47:13.194Z,0
2016-12-01T05:48:22.237Z,0
2016-12-01T05:49:30.911Z,0
2016-12-01T05:50:40.208Z,0
2016-12-01T05:51:50.559Z,0
2016-12-01T05:52:59.244Z,0
2016-12-01T05:54:07.923Z,0
2016-12-01T05:55:17.230Z,0
2016-12-01T05:56:25.907Z,0
2016-12-01T05:57:34.904Z,0
2016-12-01T05:58:43.899Z,0
2016-12-01T05:59:53.199Z,0
2016-12-01T06:01:01.872Z,0
2016-12-01T06:02:11.169Z,0
2016-12-01T06:03:20.464Z,0
2016-12-01T06:04:29.157Z,0
2016-12-01T06:05:38.453Z,0
2016-12-01T06:06:47.445Z,0
2016-12-01T06:07:56.425Z,0
2016-12-01T06:09:05.427Z,0
2016-12-01T06:10:14.717Z,0
2016-12-01T06:11:24.020Z,0
2016-12-01T06:12:33.319Z,0
2016-12-01T06:13:42.625Z,0
2016-12-01T06:14:51.912Z,0
2016-12-01T06:16:00.593Z,4
2016-12-01T06:17:09.319Z,4
2016-12-01T06:18:18.328Z,4
2016-12-01T06:19:27.632Z,4
2016-12-01T06:20:37.100Z,4
2016-12-01T06:21:46.092Z,4
2016-12-01T06:22:54.770Z,4
2016-12-01T06:24:03.483Z,8
2016-12-01T06:25:12.170Z,4
2016-12-01T06:26:21.472Z,4
2016-12-01T06:27:30.461Z,4
2016-12-01T06:28:39.756Z,4
2016-12-01T06:29:48.455Z,4
2016-12-01T06:30:57.467Z,4
2016-12-01T06:32:06.613Z,4
2016-12-01T06:33:15.602Z,4
2016-12-01T06:34:24.905Z,4
2016-12-01T06:35:33.893Z,4
2016-12-01T06:36:42.579Z,4
2016-12-01T06:37:52.197Z,4
2016-12-01T06:39:01.215Z,4
2016-12-01T06:40:10.217Z,4
2016-12-01T06:41:19.202Z,4
2016-12-01T06:42:28.493Z,4
2016-12-01T06:43:37.809Z,4
2016-12-01T06:44:47.101Z,4
2016-12-01T06:45:56.099Z,4
2016-12-01T06:47:04.788Z,4
2016-12-01T06:48:13.462Z,4
2016-12-01T06:49:22.751Z,4
2016-12-01T06:50:31.745Z,4
2016-12-01T06:51:41.076Z,4
2016-12-01T06:52:49.775Z,4
2016-12-01T06:53:58.498Z,4
2016-12-01T06:55:07.499Z,4
2016-12-01T06:56:16.193Z,4
2016-12-01T06:57:25.186Z,4
2016-12-01T06:58:34.489Z,4
2016-12-01T06:59:43.783Z,4
2016-12-01T07:00:52.770Z,4
2016-12-01T07:02:01.449Z,4
2016-12-01T07:03:10.754Z,4
2016-12-01T07:04:19.443Z,4
2016-12-01T07:05:28.156Z,4
2016-12-01T07:06:37.594Z,4
2016-12-01T07:07:46.311Z,4
2016-12-01T07:08:55.324Z,4
2016-12-01T07:10:04.323Z,4
2016-12-01T07:11:13.306Z,8
2016-12-01T07:12:21.993Z,8
2016-12-01T07:13:31.009Z,8
2016-12-01T07:14:39.695Z,4
2016-12-01T07:15:48.401Z,8
2016-12-01T07:16:57.402Z,8
2016-12-01T07:18:06.390Z,8
2016-12-01T07:19:15.091Z,12
2016-12-01T07:20:23.779Z,16
2016-12-01T07:21:32.776Z,12
2016-12-01T07:22:41.794Z,12
2016-12-01T07:23:50.510Z,12
2016-12-01T07:24:59.212Z,12
2016-12-01T07:26:08.216Z,16
2016-12-01T07:27:17.235Z,12
2016-12-01T07:28:26.231Z,16
2016-12-01T07:29:35.547Z,16
2016-12-01T07:30:44.861Z,16
2016-12-01T07:31:54.172Z,20
2016-12-01T07:33:03.488Z,20
2016-12-01T07:34:12.795Z,20
2016-12-01T07:35:22.104Z,24
2016-12-01T07:36:31.719Z,24
2016-12-01T07:37:40.416Z,24
2016-12-01T07:38:49.733Z,24
2016-12-01T07:39:58.433Z,20
2016-12-01T07:41:07.425Z,24
2016-12-01T07:42:16.142Z,28
2016-12-01T07:43:25.120Z,32
2016-12-01T07:44:34.109Z,36
2016-12-01T07:45:42.813Z,36
2016-12-01T07:46:51.953Z,36
2016-12-01T07:48:00.955Z,40
2016-12-01T07:49:09.944Z,44
2016-12-01T07:50:18.946Z,40
2016-12-01T07:51:28.267Z,44
2016-12-01T07:52:37.290Z,52
2016-12-01T07:53:46.280Z,48
2016-12-01T07:54:55.304Z,52
2016-12-01T07:56:04.011Z,52
2016-12-01T07:57:13.003Z,48
2016-12-01T07:58:22.321Z,48
2016-12-01T07:59:31.016Z,48
2016-12-01T08:00:40.013Z,52
2016-12-01T08:01:49.006Z,56
2016-12-01T08:02:57.711Z,56
2016-12-01T08:04:06.873Z,52
2016-12-01T08:05:15.566Z,52
2016-12-01T08:06:24.566Z,64
2016-12-01T08:07:34.178Z,64
2016-12-01T08:08:43.174Z,72
2016-12-01T08:09:51.871Z,76
2016-12-01T08:11:00.576Z,80
2016-12-01T08:12:09.263Z,76
2016-12-01T08:13:18.575Z,76
2016-12-01T08:14:27.277Z,88
2016-12-01T08:15:36.892Z,96
2016-12-01T08:16:46.180Z,104
2016-12-01T08:17:54.866Z,104
2016-12-01T08:19:03.861Z,104
2016-12-01T08:20:12.893Z,96
2016-12-01T08:21:22.512Z,100
2016-12-01T08:22:31.509Z,104
2016-12-01T08:23:40.810Z,108
2016-12-01T08:24:50.426Z,108
2016-12-01T08:25:59.745Z,116
2016-12-01T08:27:09.215Z,132
2016-12-01T08:28:17.914Z,132
2016-12-01T08:29:26.621Z,116
2016-12-01T08:30:35.931Z,124
2016-12-01T08:31:45.252Z,124
2016-12-01T08:32:54.546Z,132
2016-12-01T08:34:04.166Z,124
2016-12-01T08:35:13.169Z,140
2016-12-01T08:36:22.170Z,144
2016-12-01T08:37:31.178Z,152
2016-12-01T08:38:40.192Z,164
2016-12-01T08:39:49.497Z,160
2016-12-01T08:40:58.488Z,156
2016-12-01T08:42:07.182Z,188
2016-12-01T08:43:16.214Z,216
2016-12-01T08:44:25.356Z,196
2016-12-01T08:45:34.048Z,220
2016-12-01T08:46:43.053Z,228
2016-12-01T08:47:52.050Z,208
2016-12-01T08:49:01.040Z,224
2016-12-01T08:50:10.019Z,212
2016-12-01T08:51:19.028Z,208
2016-12-01T08:52:28.058Z,228
2016-12-01T08:53:37.063Z,244
2016-12-01T08:54:46.070Z,232
2016-12-01T08:55:54.949Z,204
2016-12-01T08:57:03.944Z,200
2016-12-01T08:58:13.251Z,212
2016-12-01T08:59:22.251Z,208
2016-12-01T09:00:31.252Z,236
2016-12-01T09:01:40.713Z,260
2016-12-01T09:02:50.038Z,256
2016-12-01T09:03:59.072Z,240
2016-12-01T09:05:07.761Z,260
2016-12-01T09:06:17.641Z,256
2016-12-01T09:07:27.795Z,236
2016-12-01T09:08:36.480Z,232
2016-12-01T09:09:45.488Z,224
2016-12-01T09:10:54.172Z,216
2016-12-01T09:12:03.187Z,200
2016-12-01T09:13:12.368Z,200
2016-12-01T09:14:21.049Z,224
2016-12-01T09:15:30.044Z,200
2016-12-01T09:16:39.067Z,216
2016-12-01T09:17:48.358Z,208
2016-12-01T09:18:57.514Z,204
2016-12-01T09:20:06.265Z,208
2016-12-01T09:21:15.259Z,208
2016-12-01T09:22:24.569Z,216
2016-12-01T09:23:33.256Z,236
2016-12-01T09:24:42.571Z,256
2016-12-01T09:25:51.314Z,272
2016-12-01T09:27:00.614Z,264
2016-12-01T09:28:09.639Z,280
2016-12-01T09:29:18.936Z,296
2016-12-01T09:30:28.129Z,320
2016-12-01T09:31:37.126Z,320
2016-12-01T09:32:46.767Z,324
2016-12-01T09:33:55.860Z,328
2016-12-01T09:35:04.866Z,336
2016-12-01T09:36:13.863Z,316
2016-12-01T09:37:23.479Z,320
2016-12-01T09:38:32.161Z,292
2016-12-01T09:39:41.174Z,308
2016-12-01T09:40:50.173Z,336
2016-12-01T09:41:59.174Z,384
2016-12-01T09:43:08.180Z,352
2016-12-01T09:44:17.219Z,328
2016-12-01T09:45:26.224Z,352
2016-12-01T09:46:35.222Z,404
2016-12-01T09:47:45.138Z,492
2016-12-01T09:48:54.127Z,556
2016-12-01T09:50:03.169Z,512
2016-12-01T09:51:13.738Z,624
2016-12-01T09:52:23.046Z,568
2016-12-01T09:53:32.962Z,500
2016-12-01T09:54:41.962Z,464
2016-12-01T09:55:51.276Z,520
2016-12-01T09:57:00.589Z,624
2016-12-01T09:58:09.299Z,628
2016-12-01T09:59:18.003Z,624
2016-12-01T10:00:26.695Z,540
2016-12-01T10:01:35.383Z,560
2016-12-01T10:02:44.092Z,508
2016-12-01T10:03:52.795Z,452
2016-12-01T10:05:02.558Z,440
2016-12-01T10:06:12.153Z,440
2016-12-01T10:07:21.151Z,460
2016-12-01T10:08:30.768Z,484
2016-12-01T10:09:40.070Z,516
2016-12-01T10:10:49.373Z,504
2016-12-01T10:11:58.676Z,592
2016-12-01T10:13:07.688Z,684
2016-12-01T10:14:16.715Z,668
2016-12-01T10:15:25.718Z,656
2016-12-01T10:16:35.183Z,684
2016-12-01T10:17:43.869Z,652
2016-12-01T10:18:52.547Z,664
2016-12-01T10:20:01.533Z,732
2016-12-01T10:21:10.517Z,732
2016-12-01T10:22:19.595Z,756
2016-12-01T10:23:28.272Z,740
2016-12-01T10:24:38.208Z,720
2016-12-01T10:25:47.512Z,724
2016-12-01T10:26:56.538Z,832
2016-12-01T10:28:05.836Z,820
2016-12-01T10:29:14.840Z,912
2016-12-01T10:30:23.542Z,872
2016-12-01T10:31:32.532Z,844
2016-12-01T10:32:41.512Z,896
2016-12-01T10:33:50.530Z,884
2016-12-01T10:34:59.219Z,904
2016-12-01T10:36:08.528Z,936
2016-12-01T10:37:17.830Z,956
2016-12-01T10:38:26.526Z,904
2016-12-01T10:39:35.529Z,884
2016-12-01T10:40:44.543Z,848
2016-12-01T10:41:53.537Z,852
2016-12-01T10:43:03.154Z,860
2016-12-01T10:44:12.144Z,844
2016-12-01T10:45:21.160Z,848
2016-12-01T10:46:30.768Z,828
2016-12-01T10:47:40.079Z,864
2016-12-01T10:48:49.388Z,1000
2016-12-01T10:49:58.387Z,1064
2016-12-01T10:51:08.105Z,1032
2016-12-01T10:52:17.101Z,1004
2016-12-01T10:53:26.418Z,1040
2016-12-01T10:54:35.736Z,864
2016-12-01T10:55:45.364Z,804
2016-12-01T10:56:54.367Z,672
2016-12-01T10:58:03.355Z,672
2016-12-01T10:59:12.058Z,676
2016-12-01T11:00:20.749Z,676
2016-12-01T11:01:29.457Z,600
2016-12-01T11:02:38.461Z,560
2016-12-01T11:03:47.151Z,592
2016-12-01T11:04:56.454Z,532
2016-12-01T11:06:05.447Z,484
2016-12-01T11:07:15.353Z,548
2016-12-01T11:08:24.755Z,556
2016-12-01T11:09:33.765Z,596
2016-12-01T11:10:43.070Z,596
2016-12-01T11:11:51.759Z,572
2016-12-01T11:13:01.073Z,496
2016-12-01T11:14:10.559Z,472
2016-12-01T11:15:19.259Z,712
2016-12-01T11:16:28.263Z,788
2016-12-01T11:17:37.269Z,708
2016-12-01T11:18:46.893Z,560
2016-12-01T11:19:55.643Z,464
2016-12-01T11:21:04.956Z,488
2016-12-01T11:22:13.975Z,520
2016-12-01T11:23:23.586Z,500
2016-12-01T11:24:32.591Z,488
2016-12-01T11:25:41.291Z,536
2016-12-01T11:26:50.304Z,564
2016-12-01T11:27:59.593Z,556
2016-12-01T11:29:08.597Z,548
2016-12-01T11:30:17.315Z,528
2016-12-01T11:31:26.938Z,520
2016-12-01T11:32:35.648Z,512
2016-12-01T11:33:44.667Z,420
2016-12-01T11:34:53.665Z,448
2016-12-01T11:36:03.578Z,440
2016-12-01T11:37:12.911Z,400
2016-12-01T11:38:22.815Z,404
2016-12-01T11:39:31.813Z,432
2016-12-01T11:40:40.498Z,452
2016-12-01T11:41:49.242Z,432
2016-12-01T11:42:58.400Z,432
2016-12-01T11:44:07.431Z,408
2016-12-01T11:45:16.123Z,384
2016-12-01T11:46:25.742Z,372
2016-12-01T11:47:34.445Z,408
2016-12-01T11:48:43.149Z,364
2016-12-01T11:49:52.471Z,324
2016-12-01T11:51:02.373Z,352
2016-12-01T11:52:11.082Z,360
2016-12-01T11:53:20.083Z,320
2016-12-01T11:54:28.792Z,336
2016-12-01T11:58:12.861Z,312
2016-12-01T11:59:21.576Z,308
2016-12-01T12:00:30.671Z,336
2016-12-01T12:01:39.973Z,296
2016-12-01T12:02:49.284Z,320
2016-12-01T12:03:58.597Z,248
2016-12-01T12:05:08.059Z,260
2016-12-01T12:06:16.757Z,312
2016-12-01T12:07:25.750Z,356
2016-12-01T12:08:34.749Z,296
2016-12-01T12:09:44.059Z,292
2016-12-01T12:10:53.163Z,308
2016-12-01T12:12:02.170Z,308
2016-12-01T12:13:11.496Z,296
2016-12-01T12:14:20.184Z,332
2016-12-01T12:15:29.181Z,344
2016-12-01T12:16:38.476Z,320
2016-12-01T12:17:47.777Z,324
2016-12-01T12:18:57.380Z,320
2016-12-01T12:20:06.085Z,304
2016-12-01T12:21:15.077Z,284
2016-12-01T12:22:24.677Z,316
2016-12-01T12:23:33.988Z,324
2016-12-01T12:24:42.978Z,340
2016-12-01T12:25:51.654Z,344
2016-12-01T12:27:00.951Z,320
2016-12-01T12:28:09.938Z,340
2016-12-01T12:29:19.254Z,308
2016-12-01T12:30:28.256Z,312
2016-12-01T12:31:37.289Z,300
2016-12-01T12:32:46.320Z,316
2016-12-01T12:33:55.402Z,328
2016-12-01T12:35:04.408Z,332
2016-12-01T12:36:13.428Z,336
2016-12-01T12:37:22.124Z,364
2016-12-01T12:38:31.136Z,352
2016-12-01T12:39:40.468Z,372
2016-12-01T12:40:49.479Z,360
2016-12-01T12:41:58.470Z,372
2016-12-01T12:43:07.498Z,348
2016-12-01T12:44:16.913Z,300
2016-12-01T12:45:25.665Z,256
2016-12-01T12:46:34.382Z,328
2016-12-01T12:47:43.076Z,304
2016-12-01T12:48:51.789Z,332
2016-12-01T12:50:01.125Z,348
2016-12-01T12:51:09.966Z,328
2016-12-01T12:52:19.269Z,316
2016-12-01T12:53:28.322Z,312
2016-12-01T12:54:37.331Z,256
2016-12-01T12:55:46.043Z,272
2016-12-01T12:56:55.064Z,248
2016-12-01T12:58:04.108Z,256
2016-12-01T12:59:13.097Z,252
2016-12-01T13:00:22.098Z,232
2016-12-01T13:01:31.161Z,228
2016-12-01T13:02:40.178Z,204
2016-12-01T13:03:48.888Z,192
2016-12-01T13:04:57.901Z,184
2016-12-01T13:06:06.605Z,192
2016-12-01T13:07:15.916Z,188
2016-12-01T13:08:24.913Z,176
2016-12-01T13:09:33.650Z,144
2016-12-01T13:10:42.356Z,152
2016-12-01T13:11:51.673Z,164
2016-12-01T13:13:00.668Z,144
2016-12-01T13:14:09.978Z,168
2016-12-01T13:15:18.994Z,168
2016-12-01T13:16:28.001Z,144
2016-12-01T13:17:37.040Z,140
2016-12-01T13:18:45.750Z,136
2016-12-01T13:19:54.757Z,160
2016-12-01T13:21:03.780Z,144
2016-12-01T13:22:12.483Z,156
2016-12-01T13:23:21.493Z,160
2016-12-01T13:24:30.518Z,148
2016-12-01T13:25:39.505Z,144
2016-12-01T13:26:48.824Z,124
2016-12-01T13:27:57.820Z,124
2016-12-01T13:29:06.811Z,148
2016-12-01T13:30:15.481Z,188
2016-12-01T13:31:24.166Z,176
2016-12-01T13:32:33.467Z,164
2016-12-01T13:33:43.071Z,140
2016-12-01T13:34:52.072Z,124
2016-12-01T13:36:01.081Z,136
2016-12-01T13:37:10.684Z,108
2016-12-01T13:38:19.375Z,124
2016-12-01T13:39:28.354Z,136
2016-12-01T13:40:37.352Z,140
2016-12-01T13:41:46.093Z,116
2016-12-01T13:42:55.239Z,112
2016-12-01T13:44:04.233Z,108
2016-12-01T13:45:12.932Z,84
2016-12-01T13:46:22.255Z,84
2016-12-01T13:47:31.884Z,80
2016-12-01T13:48:41.363Z,80
2016-12-01T13:49:50.670Z,76
2016-12-01T13:50:59.376Z,76
2016-12-01T13:52:08.985Z,72
2016-12-01T13:53:18.914Z,72
2016-12-01T13:54:27.979Z,76
2016-12-01T13:55:36.665Z,68
2016-12-01T13:56:45.656Z,64
2016-12-01T13:57:54.658Z,68
2016-12-01T13:59:03.658Z,68
2016-12-01T14:00:12.663Z,64
2016-12-01T14:01:22.265Z,72
2016-12-01T14:02:30.958Z,68
2016-12-01T14:03:40.265Z,84
2016-12-01T14:04:48.971Z,84
2016-12-01T14:05:58.261Z,84
2016-12-01T14:07:07.256Z,76
2016-12-01T14:08:16.563Z,80
2016-12-01T14:09:26.176Z,84
2016-12-01T14:10:36.101Z,88
2016-12-01T14:11:46.011Z,88
2016-12-01T14:12:55.006Z,88
2016-12-01T14:14:04.002Z,96
2016-12-01T14:15:13.296Z,96
2016-12-01T14:16:22.281Z,120
2016-12-01T14:17:31.568Z,116
2016-12-01T14:18:41.183Z,108
2016-12-01T14:19:50.200Z,92
2016-12-01T14:20:59.201Z,92
2016-12-01T14:22:08.509Z,96
2016-12-01T14:23:17.855Z,112
2016-12-01T14:24:27.173Z,116
2016-12-01T14:25:36.483Z,112
2016-12-01T14:26:45.174Z,108
2016-12-01T14:27:54.494Z,100
2016-12-01T14:29:03.830Z,88
2016-12-01T14:30:12.552Z,80
2016-12-01T14:31:22.162Z,84
2016-12-01T14:32:31.158Z,76
2016-12-01T14:33:39.851Z,72
2016-12-01T14:34:48.847Z,72
2016-12-01T14:35:58.520Z,60
2016-12-01T14:37:07.807Z,68
2016-12-01T14:38:16.806Z,72
2016-12-01T14:39:25.518Z,80
2016-12-01T14:40:34.206Z,72
2016-12-01T14:41:43.516Z,72
2016-12-01T14:42:52.833Z,64
2016-12-01T14:44:01.835Z,60
2016-12-01T14:45:10.543Z,68
2016-12-01T14:46:19.707Z,68
2016-12-01T14:47:28.412Z,64
2016-12-01T14:48:37.431Z,52
2016-12-01T14:49:46.164Z,52
2016-12-01T14:50:54.855Z,40
2016-12-01T14:52:04.161Z,36
2016-12-01T14:53:13.467Z,32
2016-12-01T14:54:22.156Z,40
2016-12-01T14:55:31.149Z,36
2016-12-01T14:56:40.175Z,40
2016-12-01T14:57:49.518Z,32
2016-12-01T14:58:58.193Z,36
2016-12-01T15:00:07.498Z,32
2016-12-01T15:01:16.791Z,36
2016-12-01T15:02:26.080Z,32
2016-12-01T15:03:34.772Z,32
2016-12-01T15:04:44.069Z,32
2016-12-01T15:05:53.068Z,32
2016-12-01T15:07:02.727Z,40
2016-12-01T15:08:11.718Z,40
2016-12-01T15:09:21.132Z,32
2016-12-01T15:10:30.430Z,32
2016-12-01T15:11:39.446Z,28
2016-12-01T15:12:48.146Z,32
2016-12-01T15:13:56.847Z,28
2016-12-01T15:15:05.876Z,24
2016-12-01T15:16:14.566Z,24
2016-12-01T15:17:23.555Z,16
2016-12-01T15:18:33.168Z,20
2016-12-01T15:19:41.858Z,20
2016-12-01T15:20:50.962Z,16
2016-12-01T15:22:00.305Z,16
2016-12-01T15:23:08.994Z,12
2016-12-01T15:24:17.686Z,12
2016-12-01T15:25:27.293Z,12
2016-12-01T15:26:36.292Z,12
2016-12-01T15:27:45.266Z,12
2016-12-01T15:28:53.962Z,12
2016-12-01T15:30:02.972Z,8
2016-12-01T15:31:12.290Z,8
2016-12-01T15:32:21.448Z,8
2016-12-01T15:33:30.175Z,8
2016-12-01T15:34:39.179Z,4
2016-12-01T15:35:48.480Z,4
2016-12-01T15:36:57.495Z,8
2016-12-01T15:38:06.514Z,4
2016-12-01T15:39:15.824Z,4
2016-12-01T15:40:25.437Z,4
2016-12-01T15:41:34.736Z,0
2016-12-01T15:42:44.044Z,0
2016-12-01T15:43:53.362Z,4
2016-12-01T15:45:02.657Z,4
2016-12-01T15:46:11.674Z,4
2016-12-01T15:47:20.379Z,0
2016-12-01T15:48:29.068Z,0
2016-12-01T15:49:38.171Z,0
2016-12-01T15:50:46.861Z,0
2016-12-01T15:51:55.874Z,0
2016-12-01T15:53:04.876Z,0
2016-12-01T15:54:13.888Z,0
2016-12-01T15:55:23.199Z,0
2016-12-01T15:56:32.537Z,0
2016-12-01T15:57:41.554Z,0
2016-12-01T15:58:50.558Z,0
2016-12-01T15:59:59.867Z,0
2016-12-01T16:01:08.859Z,0
2016-12-01T16:02:17.865Z,0
2016-12-01T16:03:26.574Z,0
2016-12-01T16:04:35.560Z,0
2016-12-01T16:05:44.873Z,0
2016-12-01T16:06:53.907Z,0
2016-12-01T16:08:03.200Z,0
2016-12-01T16:09:11.888Z,0
2016-12-01T16:10:20.892Z,0
2016-12-01T16:11:29.902Z,0
2016-12-01T16:12:38.596Z,0
2016-12-01T16:13:47.597Z,0
2016-12-01T16:14:56.290Z,0
2016-12-01T16:16:05.009Z,0
2016-12-01T16:17:14.315Z,0
2016-12-01T16:18:23.681Z,0
2016-12-01T16:19:32.702Z,0
2016-12-01T16:20:41.697Z,0
2016-12-01T16:21:50.699Z,0
2016-12-01T16:23:00.327Z,0
2016-12-01T16:24:09.471Z,0
2016-12-01T16:25:18.167Z,0
2016-12-01T16:26:27.486Z,0
2016-12-01T16:27:36.491Z,0
2016-12-01T16:28:46.116Z,0
2016-12-01T16:29:55.564Z,0
2016-12-01T16:31:04.869Z,0
2016-12-01T16:32:14.474Z,0
2016-12-01T16:33:23.172Z,0